Time;durP1;ratioP1;P1;durP2;ratioP2;P2;SDS_P1;SDS_P2;PMS_P1;PMS_P2;Temp;Humidity;BMP_temperature;BMP_pressure;BME280_temperature;BME280_humidity;BME280_pressure;Samples;Min_cycle;Max_cycle;Signal;HPM_P1;HPM_P2
2022/09/18 00:01:23;;;;;;;2.07;1.80;;;;;;;;;;5019451;28;20184;-88
2022/09/18 00:03:50;;;;;;;2.57;2.00;;;;;;;;;;5018762;28;20232;-88
2022/09/18 00:06:19;;;;;;;4.07;1.90;;;;;;;;;;5004331;28;20200;-87
2022/09/18 00:08:49;;;;;;;2.93;2.10;;;;;;;;;;4994728;28;20251;-88
2022/09/18 00:11:16;;;;;;;7.20;2.10;;;;;;;;;;4995549;28;20208;-88
2022/09/18 00:13:43;;;;;;;2.70;1.90;;;;;;;;;;4994588;28;20243;-88
2022/09/18 00:16:11;;;;;;;5.07;2.10;;;;;;;;;;4995365;28;20212;-88
2022/09/18 00:18:38;;;;;;;4.87;2.20;;;;;;;;;;4994425;28;20243;-87
2022/09/18 00:21:06;;;;;;;4.47;1.90;;;;;;;;;;4995189;28;20204;-87
2022/09/18 00:23:35;;;;;;;3.70;2.00;;;;;;;;;;4994651;28;20208;-88
2022/09/18 00:26:02;;;;;;;3.13;2.40;;;;;;;;;;4994861;28;20523;-89
2022/09/18 00:28:29;;;;;;;5.23;1.90;;;;;;;;;;4994025;28;20244;-87
2022/09/18 00:30:56;;;;;;;3.53;2.13;;;;;;;;;;4994727;28;20220;-88
2022/09/18 00:33:23;;;;;;;3.27;1.90;;;;;;;;;;4994358;28;20637;-87
2022/09/18 00:35:50;;;;;;;3.27;1.87;;;;;;;;;;4995070;28;20219;-87
2022/09/18 00:38:17;;;;;;;5.27;2.10;;;;;;;;;;4993996;28;20224;-87
2022/09/18 00:40:46;;;;;;;4.20;1.90;;;;;;;;;;4994574;28;20211;-87
2022/09/18 00:43:17;;;;;;;5.70;2.20;;;;;;;;;;4994814;28;20211;-88
2022/09/18 00:45:44;;;;;;;4.43;2.20;;;;;;;;;;4994512;28;20259;-87
2022/09/18 00:48:11;;;;;;;6.80;2.03;;;;;;;;;;4994183;28;20232;-88
2022/09/18 00:50:38;;;;;;;3.90;1.90;;;;;;;;;;4994223;28;20244;-86
2022/09/18 00:53:06;;;;;;;6.47;2.13;;;;;;;;;;4994584;28;20286;-87
2022/09/18 00:55:34;;;;;;;2.13;2.00;;;;;;;;;;4994122;28;20247;-87
2022/09/18 00:58:03;;;;;;;3.60;1.80;;;;;;;;;;4993954;28;20220;-87
2022/09/18 01:00:30;;;;;;;6.13;2.07;;;;;;;;;;4993801;28;20236;-88
2022/09/18 01:03:01;;;;;;;3.27;1.80;;;;;;;;;;4994341;28;20552;-87
2022/09/18 01:05:31;;;;;;;2.10;1.80;;;;;;;;;;4992069;28;20257;-85
2022/09/18 01:08:14;;;;;;;4.10;1.97;;;;;;;;;;4993160;28;20673;-85
2022/09/18 01:10:55;;;;;;;4.47;1.83;;;;;;;;;;4993592;28;20212;-87
2022/09/18 01:13:27;;;;;;;4.50;1.90;;;;;;;;;;4993674;28;20200;-88
2022/09/18 01:15:56;;;;;;;4.67;1.77;;;;;;;;;;4993795;28;20192;-88
2022/09/18 01:18:26;;;;;;;6.13;2.07;;;;;;;;;;4993030;28;20270;-87
2022/09/18 01:21:11;;;;;;;5.20;2.00;;;;;;;;;;4993905;28;20246;-88
2022/09/18 01:23:57;;;;;;;4.27;1.83;;;;;;;;;;4993394;28;20271;-88
2022/09/18 01:26:29;;;;;;;5.33;2.20;;;;;;;;;;4993779;28;20627;-88
2022/09/18 01:28:59;;;;;;;5.33;1.77;;;;;;;;;;4992518;28;20239;-88
2022/09/18 01:31:29;;;;;;;3.20;1.70;;;;;;;;;;4993974;28;20208;-88
2022/09/18 01:33:59;;;;;;;3.93;1.80;;;;;;;;;;4993023;28;20604;-88
2022/09/18 01:36:28;;;;;;;3.83;2.00;;;;;;;;;;4993667;28;20192;-87
2022/09/18 01:38:57;;;;;;;3.23;2.03;;;;;;;;;;4992607;28;20704;-88
2022/09/18 01:41:25;;;;;;;2.57;1.70;;;;;;;;;;4993706;28;20208;-88
2022/09/18 01:43:55;;;;;;;4.80;1.77;;;;;;;;;;4993102;28;20606;-87
2022/09/18 01:46:23;;;;;;;3.20;1.80;;;;;;;;;;4993437;28;20211;-88
2022/09/18 01:48:53;;;;;;;4.77;1.93;;;;;;;;;;4992555;28;20616;-87
2022/09/18 01:51:22;;;;;;;4.63;1.97;;;;;;;;;;4993497;28;20215;-87
2022/09/18 01:53:52;;;;;;;4.33;1.70;;;;;;;;;;4992713;28;20243;-88
2022/09/18 01:56:22;;;;;;;1.90;1.57;;;;;;;;;;4993431;28;20255;-88
2022/09/18 01:58:50;;;;;;;2.00;1.80;;;;;;;;;;4992210;28;20712;-87
2022/09/18 02:01:19;;;;;;;3.93;1.93;;;;;;;;;;4993080;28;20211;-87
2022/09/18 02:03:49;;;;;;;5.10;2.00;;;;;;;;;;4992763;28;20600;-87
2022/09/18 02:06:18;;;;;;;4.43;1.63;;;;;;;;;;4993376;28;20556;-88
2022/09/18 02:08:47;;;;;;;4.77;1.73;;;;;;;;;;4992324;28;20239;-87
2022/09/18 02:11:16;;;;;;;2.50;1.93;;;;;;;;;;4993174;28;20239;-88
2022/09/18 02:13:44;;;;;;;3.67;2.00;;;;;;;;;;4992643;28;20227;-87
2022/09/18 02:16:16;;;;;;;4.03;2.07;;;;;;;;;;4993198;28;20208;-87
2022/09/18 02:18:44;;;;;;;3.00;1.50;;;;;;;;;;4992155;28;20240;-85
2022/09/18 02:21:19;;;;;;;3.40;1.70;;;;;;;;;;4992279;28;20201;-85
2022/09/18 02:23:46;;;;;;;3.27;1.80;;;;;;;;;;4992348;28;20235;-90
2022/09/18 02:26:15;;;;;;;4.53;2.07;;;;;;;;;;4992807;28;20548;-88
2022/09/18 02:28:43;;;;;;;4.40;1.90;;;;;;;;;;4991762;28;20246;-87
2022/09/18 02:31:11;;;;;;;4.80;1.83;;;;;;;;;;4993233;28;20208;-87
2022/09/18 02:33:39;;;;;;;4.97;1.87;;;;;;;;;;4992123;28;20311;-88
2022/09/18 02:36:16;;;;;;;1.73;1.30;;;;;;;;;;4992816;28;20210;-88
2022/09/18 02:38:49;;;;;;;4.73;1.57;;;;;;;;;;4991908;28;20243;-88
2022/09/18 02:41:22;;;;;;;3.57;1.80;;;;;;;;;;4992588;28;20585;-88
2022/09/18 02:43:54;;;;;;;2.37;1.70;;;;;;;;;;4991946;28;20240;-90
2022/09/18 02:46:24;;;;;;;7.50;3.07;;;;;;;;;;4992810;28;20216;-88
2022/09/18 02:49:00;;;;;;;3.50;1.90;;;;;;;;;;4991356;28;20236;-88
2022/09/18 02:51:30;;;;;;;5.50;2.00;;;;;;;;;;4992807;28;20195;-88
2022/09/18 02:54:03;;;;;;;3.80;2.10;;;;;;;;;;4991864;28;20246;-88
2022/09/18 02:56:34;;;;;;;3.33;1.57;;;;;;;;;;4992808;28;20204;-87
2022/09/18 02:59:04;;;;;;;3.13;1.60;;;;;;;;;;4991757;28;20290;-87
2022/09/18 03:01:32;;;;;;;2.43;1.60;;;;;;;;;;4992765;28;20196;-88
2022/09/18 03:04:03;;;;;;;4.00;1.90;;;;;;;;;;4991608;28;20603;-88
2022/09/18 03:06:30;;;;;;;3.23;1.60;;;;;;;;;;4992435;28;20232;-87
2022/09/18 03:08:58;;;;;;;2.73;1.90;;;;;;;;;;4991749;28;20240;-88
2022/09/18 03:11:25;;;;;;;3.27;1.73;;;;;;;;;;4992530;28;20231;-88
2022/09/18 03:13:52;;;;;;;4.43;2.10;;;;;;;;;;4991935;28;20236;-87
2022/09/18 03:16:20;;;;;;;3.57;3.23;;;;;;;;;;4992349;28;20739;-89
2022/09/18 03:18:47;;;;;;;3.70;1.83;;;;;;;;;;4991458;28;20648;-85
2022/09/18 03:21:14;;;;;;;2.53;2.10;;;;;;;;;;4992545;28;20587;-90
2022/09/18 03:23:41;;;;;;;5.00;2.00;;;;;;;;;;4991931;28;20355;-88
2022/09/18 03:26:09;;;;;;;3.40;2.07;;;;;;;;;;4972880;28;20220;-88
2022/09/18 03:28:36;;;;;;;2.10;1.77;;;;;;;;;;5019434;23;20242;-89
2022/09/18 03:31:03;;;;;;;4.33;1.80;;;;;;;;;;5013564;28;20675;-88
2022/09/18 03:33:30;;;;;;;2.23;1.80;;;;;;;;;;5016212;28;20702;-89
2022/09/18 03:35:57;;;;;;;3.40;1.70;;;;;;;;;;5026248;28;20199;-89
2022/09/18 03:38:24;;;;;;;2.67;2.37;;;;;;;;;;5016015;28;20235;-89
2022/09/18 03:40:51;;;;;;;6.97;2.37;;;;;;;;;;5016058;28;20210;-87
2022/09/18 03:43:20;;;;;;;2.07;1.80;;;;;;;;;;5016038;28;20211;-89
2022/09/18 03:45:47;;;;;;;3.13;2.07;;;;;;;;;;5016178;28;20215;-89
2022/09/18 03:48:14;;;;;;;2.00;1.70;;;;;;;;;;5015481;28;20235;-89
2022/09/18 03:50:41;;;;;;;4.23;1.77;;;;;;;;;;5016082;28;20574;-89
2022/09/18 03:53:09;;;;;;;1.97;1.53;;;;;;;;;;5016082;28;20212;-88
2022/09/18 03:55:36;;;;;;;2.53;1.90;;;;;;;;;;5016061;28;20235;-89
2022/09/18 03:58:03;;;;;;;2.00;1.73;;;;;;;;;;5016293;28;20754;-89
2022/09/18 04:00:32;;;;;;;3.00;1.80;;;;;;;;;;5032829;28;20231;-90
2022/09/18 04:02:59;;;;;;;1.60;1.50;;;;;;;;;;5020611;28;20214;-90
2022/09/18 04:05:26;;;;;;;3.93;1.77;;;;;;;;;;5016516;28;20703;-90
2022/09/18 04:07:53;;;;;;;2.37;1.70;;;;;;;;;;5016092;28;20234;-90
2022/09/18 04:10:21;;;;;;;1.77;1.67;;;;;;;;;;5015765;28;20242;-88
2022/09/18 04:12:48;;;;;;;3.57;1.73;;;;;;;;;;5016230;28;20203;-89
2022/09/18 04:15:15;;;;;;;2.10;1.60;;;;;;;;;;5018574;28;20227;-89
2022/09/18 04:17:44;;;;;;;1.33;1.23;;;;;;;;;;5016973;28;20230;-86
2022/09/18 04:20:11;;;;;;;3.23;1.93;;;;;;;;;;5015808;28;20257;-88
2022/09/18 04:22:38;;;;;;;1.93;1.83;;;;;;;;;;5016295;28;20210;-88
2022/09/18 04:25:05;;;;;;;2.10;1.60;;;;;;;;;;5015405;28;20239;-89
2022/09/18 04:27:33;;;;;;;3.00;1.53;;;;;;;;;;5017001;28;20234;-91
2022/09/18 04:30:01;;;;;;;2.53;1.70;;;;;;;;;;5026768;28;20261;-89
2022/09/18 04:32:28;;;;;;;3.20;1.53;;;;;;;;;;5015749;28;20196;-90
2022/09/18 04:34:57;;;;;;;1.50;1.40;;;;;;;;;;5014726;28;20243;-89
2022/09/18 04:37:24;;;;;;;3.13;1.70;;;;;;;;;;5015992;28;20200;-89
2022/09/18 04:39:54;;;;;;;2.00;1.37;;;;;;;;;;5016323;28;20725;-89
2022/09/18 04:42:21;;;;;;;1.47;1.40;;;;;;;;;;5016042;28;20204;-88
2022/09/18 04:44:48;;;;;;;2.83;1.40;;;;;;;;;;5016991;28;20242;-89
2022/09/18 04:47:15;;;;;;;1.50;1.30;;;;;;;;;;5016241;28;20223;-91
2022/09/18 04:49:42;;;;;;;3.90;1.50;;;;;;;;;;5015303;28;20739;-90
2022/09/18 04:52:11;;;;;;;1.87;1.57;;;;;;;;;;5016311;28;20222;-90
2022/09/18 04:54:38;;;;;;;3.53;1.80;;;;;;;;;;5016027;28;20242;-89
2022/09/18 04:57:05;;;;;;;3.63;1.77;;;;;;;;;;5017225;28;20223;-90
2022/09/18 04:59:32;;;;;;;2.30;1.43;;;;;;;;;;5016634;28;20611;-90
2022/09/18 05:01:59;;;;;;;1.70;1.60;;;;;;;;;;5016686;28;20222;-92
2022/09/18 05:04:26;;;;;;;1.53;1.43;;;;;;;;;;5016542;28;20246;-90
2022/09/18 05:06:53;;;;;;;1.67;1.20;;;;;;;;;;5016961;28;20203;-90
2022/09/18 05:09:22;;;;;;;1.93;1.50;;;;;;;;;;5016402;28;20243;-89
2022/09/18 05:11:49;;;;;;;3.50;1.60;;;;;;;;;;5015577;28;20214;-90
2022/09/18 05:14:16;;;;;;;3.27;1.30;;;;;;;;;;5016115;28;20239;-88
2022/09/18 05:16:43;;;;;;;2.43;1.60;;;;;;;;;;5016338;28;20203;-89
2022/09/18 05:19:10;;;;;;;1.10;1.10;;;;;;;;;;5016295;28;20247;-90
2022/09/18 05:21:37;;;;;;;3.37;1.30;;;;;;;;;;5016633;28;20208;-89
2022/09/18 05:24:04;;;;;;;2.10;1.40;;;;;;;;;;5015863;28;20242;-90
2022/09/18 05:26:33;;;;;;;1.50;1.40;;;;;;;;;;5016132;28;20667;-87
2022/09/18 05:29:00;;;;;;;1.30;1.20;;;;;;;;;;5015099;28;20706;-90
2022/09/18 05:31:27;;;;;;;1.60;1.50;;;;;;;;;;5016531;28;20196;-89
2022/09/18 05:33:54;;;;;;;1.63;1.53;;;;;;;;;;5017679;28;20242;-89
2022/09/18 05:36:21;;;;;;;2.27;1.57;;;;;;;;;;5030824;28;20222;-88
2022/09/18 05:38:50;;;;;;;1.30;1.20;;;;;;;;;;5017816;28;20641;-89
2022/09/18 05:41:17;;;;;;;2.20;1.40;;;;;;;;;;5018963;28;20204;-89
2022/09/18 05:43:45;;;;;;;2.57;1.60;;;;;;;;;;5019068;28;20235;-89
2022/09/18 05:46:13;;;;;;;3.97;1.60;;;;;;;;;;5016638;28;20212;-88
2022/09/18 05:48:41;;;;;;;4.47;2.57;;;;;;;;;;5017049;28;20243;-89
2022/09/18 05:51:08;;;;;;;1.87;1.40;;;;;;;;;;5016359;28;20214;-89
2022/09/18 05:53:35;;;;;;;1.80;1.70;;;;;;;;;;5017045;28;20255;-90
2022/09/18 05:56:02;;;;;;;1.23;1.13;;;;;;;;;;5015936;28;20215;-89
2022/09/18 05:58:29;;;;;;;1.20;1.20;;;;;;;;;;5014983;28;20234;-89
2022/09/18 06:01:00;;;;;;;4.83;1.60;;;;;;;;;;5015886;28;20207;-89
2022/09/18 06:03:27;;;;;;;1.37;1.27;;;;;;;;;;5019532;28;20267;-88
2022/09/18 06:05:55;;;;;;;2.07;1.20;;;;;;;;;;5018035;28;20206;-84
2022/09/18 06:08:22;;;;;;;1.30;1.20;;;;;;;;;;5013349;28;20322;-85
2022/09/18 06:10:50;;;;;;;3.77;1.27;;;;;;;;;;5013588;28;20640;-84
2022/09/18 06:13:17;;;;;;;1.43;1.33;;;;;;;;;;5014627;28;20294;-84
2022/09/18 06:15:45;;;;;;;1.53;1.43;;;;;;;;;;5013619;28;20203;-84
2022/09/18 06:18:14;;;;;;;3.70;1.30;;;;;;;;;;5013349;28;20272;-85
2022/09/18 06:20:41;;;;;;;1.63;1.47;;;;;;;;;;5013664;28;20602;-84
2022/09/18 06:23:08;;;;;;;1.37;1.23;;;;;;;;;;5013650;28;20207;-85
2022/09/18 06:25:35;;;;;;;2.00;1.20;;;;;;;;;;5012826;28;20230;-85
2022/09/18 06:28:02;;;;;;;1.43;1.43;;;;;;;;;;5013498;28;20239;-85
2022/09/18 06:30:31;;;;;;;1.50;1.30;;;;;;;;;;5013113;28;20235;-85
2022/09/18 06:33:00;;;;;;;1.30;1.20;;;;;;;;;;5013570;28;20208;-84
2022/09/18 06:35:29;;;;;;;3.03;1.50;;;;;;;;;;5012664;28;20231;-85
2022/09/18 06:38:00;;;;;;;1.43;1.33;;;;;;;;;;5014356;28;20612;-85
2022/09/18 06:40:27;;;;;;;1.40;1.30;;;;;;;;;;5012892;28;20649;-84
2022/09/18 06:42:55;;;;;;;5.80;1.20;;;;;;;;;;5013470;28;20578;-85
2022/09/18 06:45:23;;;;;;;1.80;1.20;;;;;;;;;;5012908;28;20301;-85
2022/09/18 06:47:53;;;;;;;1.50;1.23;;;;;;;;;;5006048;28;20250;-85
2022/09/18 06:50:20;;;;;;;1.90;1.40;;;;;;;;;;5013275;28;20242;-85
2022/09/18 06:52:49;;;;;;;3.47;1.50;;;;;;;;;;5014117;28;20211;-84
2022/09/18 06:55:16;;;;;;;1.53;1.43;;;;;;;;;;5012743;28;20223;-84
2022/09/18 06:57:43;;;;;;;1.57;1.47;;;;;;;;;;5013010;28;20281;-84
2022/09/18 07:00:10;;;;;;;1.40;1.27;;;;;;;;;;5013023;28;20230;-84
2022/09/18 07:02:37;;;;;;;1.77;1.30;;;;;;;;;;5013233;28;20254;-85
2022/09/18 07:05:05;;;;;;;1.90;1.00;;;;;;;;;;5013146;28;20239;-84
2022/09/18 07:07:32;;;;;;;1.60;1.50;;;;;;;;;;5016968;28;20729;-85
2022/09/18 07:10:00;;;;;;;2.23;1.50;;;;;;;;;;5016600;28;20324;-85
2022/09/18 07:12:28;;;;;;;1.93;1.30;;;;;;;;;;5016843;28;20569;-85
2022/09/18 07:14:55;;;;;;;1.33;1.23;;;;;;;;;;5017685;28;20285;-85
2022/09/18 07:17:22;;;;;;;2.43;1.30;;;;;;;;;;5029951;28;20208;-85
2022/09/18 07:19:49;;;;;;;2.00;1.23;;;;;;;;;;5039128;28;20238;-85
2022/09/18 07:22:16;;;;;;;1.67;1.20;;;;;;;;;;5034756;28;20196;-85
2022/09/18 07:24:43;;;;;;;2.00;1.20;;;;;;;;;;5035486;28;20257;-85
2022/09/18 07:27:12;;;;;;;1.43;1.20;;;;;;;;;;5037470;28;20207;-85
2022/09/18 07:29:39;;;;;;;2.10;1.10;;;;;;;;;;5036571;28;20230;-85
2022/09/18 07:32:06;;;;;;;1.50;1.10;;;;;;;;;;5029607;28;20207;-83
2022/09/18 07:34:33;;;;;;;1.03;1.03;;;;;;;;;;5019451;28;20707;-83
2022/09/18 07:37:01;;;;;;;1.73;1.20;;;;;;;;;;5016661;28;20269;-84
2022/09/18 07:39:29;;;;;;;1.00;1.00;;;;;;;;;;5015888;28;20242;-85
2022/09/18 07:41:56;;;;;;;1.27;1.17;;;;;;;;;;5018824;28;20222;-85
2022/09/18 07:44:26;;;;;;;1.00;1.00;;;;;;;;;;5017747;28;20235;-85
2022/09/18 07:46:54;;;;;;;1.00;1.00;;;;;;;;;;5016955;28;20196;-85
2022/09/18 07:49:21;;;;;;;0.90;0.90;;;;;;;;;;5015822;28;20279;-85
2022/09/18 07:51:48;;;;;;;1.90;1.10;;;;;;;;;;5007417;28;20207;-85
2022/09/18 07:54:15;;;;;;;2.13;1.00;;;;;;;;;;5015176;28;20242;-85
2022/09/18 07:56:42;;;;;;;1.33;1.20;;;;;;;;;;5015808;28;20668;-84
2022/09/18 07:59:09;;;;;;;1.07;1.07;;;;;;;;;;5015532;28;20231;-83
2022/09/18 08:01:37;;;;;;;1.10;1.10;;;;;;;;;;5016684;28;20203;-85
2022/09/18 08:04:05;;;;;;;0.80;0.80;;;;;;;;;;5018556;28;20226;-85
2022/09/18 08:06:32;;;;;;;1.00;1.00;;;;;;;;;;5024207;28;20612;-85
2022/09/18 08:08:59;;;;;;;1.00;1.00;;;;;;;;;;5024530;28;20238;-85
2022/09/18 08:11:26;;;;;;;3.20;1.30;;;;;;;;;;5018596;28;20238;-85
2022/09/18 08:13:54;;;;;;;3.63;2.50;;;;;;;;;;5023281;28;20235;-86
2022/09/18 08:16:21;;;;;;;0.90;0.90;;;;;;;;;;5016188;28;20207;-86
2022/09/18 08:18:49;;;;;;;0.93;0.93;;;;;;;;;;5014261;28;20259;-85
2022/09/18 08:21:17;;;;;;;1.33;1.20;;;;;;;;;;5016047;28;20207;-85
2022/09/18 08:23:44;;;;;;;1.00;1.00;;;;;;;;;;5016029;28;20235;-86
2022/09/18 08:26:11;;;;;;;3.97;1.20;;;;;;;;;;5016286;28;20256;-86
2022/09/18 08:28:38;;;;;;;1.40;1.30;;;;;;;;;;5016023;28;20239;-87
2022/09/18 08:31:06;;;;;;;1.20;1.20;;;;;;;;;;5016696;28;20207;-85
2022/09/18 08:33:33;;;;;;;1.27;1.17;;;;;;;;;;5014504;28;20241;-87
2022/09/18 08:36:03;;;;;;;1.13;1.13;;;;;;;;;;5013906;28;20207;-85
2022/09/18 08:38:31;;;;;;;0.97;0.97;;;;;;;;;;5013492;28;20640;-86
2022/09/18 08:41:07;;;;;;;1.00;1.00;;;;;;;;;;5008452;28;20192;-85
2022/09/18 08:43:42;;;;;;;1.43;1.10;;;;;;;;;;5007384;28;20283;-88
2022/09/18 08:46:11;;;;;;;1.20;1.10;;;;;;;;;;5014754;28;20191;-85
2022/09/18 08:48:42;;;;;;;1.10;1.10;;;;;;;;;;5013692;28;20250;-89
2022/09/18 08:51:15;;;;;;;1.00;1.00;;;;;;;;;;5014403;28;20218;-86
2022/09/18 08:53:46;;;;;;;1.10;1.10;;;;;;;;;;5014030;28;20234;-86
2022/09/18 08:56:15;;;;;;;1.33;1.23;;;;;;;;;;5014378;28;20597;-86
2022/09/18 08:58:45;;;;;;;1.10;1.10;;;;;;;;;;5013693;28;20235;-85
2022/09/18 09:01:15;;;;;;;1.17;1.03;;;;;;;;;;5014115;28;20207;-86
2022/09/18 09:03:49;;;;;;;1.40;0.90;;;;;;;;;;5013812;28;20223;-86
2022/09/18 09:06:26;;;;;;;1.00;1.00;;;;;;;;;;5014186;28;20203;-85
2022/09/18 09:09:05;;;;;;;1.20;1.10;;;;;;;;;;5013331;28;20247;-85
2022/09/18 09:11:36;;;;;;;1.00;1.00;;;;;;;;;;5013969;28;20238;-85
2022/09/18 09:14:09;;;;;;;1.83;1.00;;;;;;;;;;5013389;28;20260;-85
2022/09/18 09:16:42;;;;;;;0.97;0.97;;;;;;;;;;5014778;28;20564;-86
2022/09/18 09:19:16;;;;;;;1.20;1.10;;;;;;;;;;5014192;28;20262;-87
2022/09/18 09:21:51;;;;;;;2.00;1.00;;;;;;;;;;5014241;28;20195;-87
2022/09/18 09:24:25;;;;;;;1.23;1.20;;;;;;;;;;5013519;28;20242;-87
2022/09/18 09:26:53;;;;;;;1.47;1.20;;;;;;;;;;5014078;28;20678;-86
2022/09/18 09:29:22;;;;;;;1.27;1.17;;;;;;;;;;5013523;28;20271;-87
2022/09/18 09:31:51;;;;;;;1.47;1.37;;;;;;;;;;5014144;28;20229;-85
2022/09/18 09:34:21;;;;;;;3.30;1.40;;;;;;;;;;5013171;28;20239;-86
2022/09/18 09:36:51;;;;;;;1.30;1.20;;;;;;;;;;5013887;28;20207;-86
2022/09/18 09:39:21;;;;;;;1.77;1.60;;;;;;;;;;5013295;28;20607;-88
2022/09/18 09:41:50;;;;;;;1.60;1.50;;;;;;;;;;5014944;28;20200;-86
2022/09/18 09:44:32;;;;;;;2.60;1.63;;;;;;;;;;5013066;28;20754;-87
2022/09/18 09:47:01;;;;;;;2.53;2.03;;;;;;;;;;5006687;28;20327;-87
2022/09/18 09:49:30;;;;;;;3.23;1.67;;;;;;;;;;5013454;28;20250;-86
2022/09/18 09:52:05;;;;;;;1.60;1.50;;;;;;;;;;5014077;28;20253;-87
2022/09/18 09:54:32;;;;;;;2.30;1.50;;;;;;;;;;5013523;28;20235;-86
2022/09/18 09:57:04;;;;;;;3.47;1.80;;;;;;;;;;5013495;28;20668;-87
2022/09/18 09:59:34;;;;;;;7.60;2.77;;;;;;;;;;5012759;28;20239;-88
2022/09/18 10:02:08;;;;;;;3.80;2.80;;;;;;;;;;5011494;28;20199;-86
2022/09/18 10:04:39;;;;;;;1.70;1.60;;;;;;;;;;5012880;28;20241;-87
2022/09/18 10:07:13;;;;;;;2.50;1.47;;;;;;;;;;5013154;28;20211;-88
2022/09/18 10:09:45;;;;;;;3.80;1.50;;;;;;;;;;5012400;28;20734;-87
2022/09/18 10:12:16;;;;;;;2.67;1.80;;;;;;;;;;5013163;28;20207;-89
2022/09/18 10:14:45;;;;;;;3.27;1.50;;;;;;;;;;5012997;28;20239;-85
2022/09/18 10:17:13;;;;;;;2.27;2.07;;;;;;;;;;5013775;28;20207;-88
2022/09/18 10:19:42;;;;;;;3.90;1.70;;;;;;;;;;5012628;28;20243;-87
2022/09/18 10:22:13;;;;;;;2.23;1.60;;;;;;;;;;5013654;28;20214;-88
2022/09/18 10:24:44;;;;;;;1.73;1.37;;;;;;;;;;5012737;28;20242;-86
2022/09/18 10:27:12;;;;;;;2.37;1.30;;;;;;;;;;5013227;28;20218;-88
2022/09/18 10:29:39;;;;;;;1.50;1.40;;;;;;;;;;5012691;28;20231;-86
2022/09/18 10:32:11;;;;;;;1.60;1.50;;;;;;;;;;5007180;28;20638;-89
2022/09/18 10:34:44;;;;;;;2.27;1.57;;;;;;;;;;5008590;28;20607;-86
2022/09/18 10:37:16;;;;;;;3.30;1.57;;;;;;;;;;5011213;28;20212;-86
2022/09/18 10:39:50;;;;;;;2.43;1.60;;;;;;;;;;5011839;28;20262;-85
2022/09/18 10:42:18;;;;;;;2.63;1.30;;;;;;;;;;5008909;28;20582;-86
2022/09/18 10:44:49;;;;;;;2.33;1.40;;;;;;;;;;5012139;28;20605;-86
2022/09/18 10:47:21;;;;;;;2.43;1.67;;;;;;;;;;5012892;28;20188;-88
2022/09/18 10:49:50;;;;;;;3.97;1.47;;;;;;;;;;5019102;28;20232;-86
2022/09/18 10:52:28;;;;;;;3.10;1.50;;;;;;;;;;5032147;28;20234;-85
2022/09/18 10:54:59;;;;;;;2.90;1.60;;;;;;;;;;5031449;28;20238;-88
2022/09/18 10:57:28;;;;;;;1.30;1.30;;;;;;;;;;5032223;28;20234;-89
2022/09/18 10:59:55;;;;;;;1.33;1.23;;;;;;;;;;5020594;28;20228;-89
2022/09/18 11:02:25;;;;;;;3.37;1.33;;;;;;;;;;5012784;28;20207;-89
2022/09/18 11:04:53;;;;;;;1.37;1.10;;;;;;;;;;5011969;28;20246;-89
2022/09/18 11:07:20;;;;;;;3.03;1.17;;;;;;;;;;5013288;28;20204;-89
2022/09/18 11:09:49;;;;;;;3.03;1.13;;;;;;;;;;5011714;28;20238;-88
2022/09/18 11:12:18;;;;;;;2.90;1.73;;;;;;;;;;5012434;28;20703;-90
2022/09/18 11:14:46;;;;;;;3.33;1.23;;;;;;;;;;5011703;28;20231;-89
2022/09/18 11:17:21;;;;;;;3.80;1.30;;;;;;;;;;5012153;28;20213;-88
2022/09/18 11:19:50;;;;;;;1.97;1.50;;;;;;;;;;5011421;28;20239;-87
2022/09/18 11:22:31;;;;;;;3.27;1.80;;;;;;;;;;5012363;28;20199;-87
2022/09/18 11:25:08;;;;;;;2.40;1.53;;;;;;;;;;5011579;28;20231;-87
2022/09/18 11:27:45;;;;;;;1.80;1.57;;;;;;;;;;5011934;28;20413;-87
2022/09/18 11:30:16;;;;;;;3.83;1.60;;;;;;;;;;5011377;28;20238;-89
2022/09/18 11:32:45;;;;;;;1.63;1.50;;;;;;;;;;5012064;28;20218;-87
2022/09/18 11:35:15;;;;;;;2.27;1.47;;;;;;;;;;5011546;28;20263;-89
2022/09/18 11:37:45;;;;;;;4.63;1.40;;;;;;;;;;5018781;28;20223;-89
2022/09/18 11:40:18;;;;;;;4.20;1.37;;;;;;;;;;5031938;28;20230;-89
2022/09/18 11:42:46;;;;;;;3.53;1.20;;;;;;;;;;5032233;28;20191;-88
2022/09/18 11:45:22;;;;;;;1.73;1.10;;;;;;;;;;5031227;28;20238;-88
2022/09/18 11:47:52;;;;;;;1.63;1.33;;;;;;;;;;5031297;28;20714;-90
2022/09/18 11:50:21;;;;;;;2.03;1.83;;;;;;;;;;5031196;28;20733;-89
2022/09/18 11:52:50;;;;;;;2.13;1.90;;;;;;;;;;5033816;28;20686;-88
2022/09/18 11:55:28;;;;;;;3.53;2.03;;;;;;;;;;5034382;28;20246;-88
2022/09/18 11:57:57;;;;;;;3.67;1.40;;;;;;;;;;5035113;28;20230;-89
2022/09/18 12:00:26;;;;;;;2.10;1.70;;;;;;;;;;5034517;28;20242;-88
2022/09/18 12:02:58;;;;;;;3.40;1.73;;;;;;;;;;5035414;28;20214;-88
2022/09/18 12:05:27;;;;;;;2.80;1.90;;;;;;;;;;5044361;28;20234;-88
2022/09/18 12:07:59;;;;;;;2.17;1.33;;;;;;;;;;4996404;28;20232;-87
2022/09/18 12:10:31;;;;;;;4.67;2.00;;;;;;;;;;4996179;28;20727;-89
2022/09/18 12:13:15;;;;;;;3.30;2.20;;;;;;;;;;5011564;28;20200;-87
2022/09/18 12:15:43;;;;;;;2.50;1.30;;;;;;;;;;5015118;28;20250;-85
2022/09/18 12:18:13;;;;;;;3.10;1.50;;;;;;;;;;5015112;28;20589;-87
2022/09/18 12:20:43;;;;;;;1.50;1.40;;;;;;;;;;5001744;28;20208;-88
2022/09/18 12:23:14;;;;;;;1.73;1.63;;;;;;;;;;4995489;28;20740;-87
2022/09/18 12:25:46;;;;;;;2.87;1.50;;;;;;;;;;4995225;28;20216;-87
2022/09/18 12:28:17;;;;;;;2.07;1.60;;;;;;;;;;4995560;28;20224;-87
2022/09/18 12:30:50;;;;;;;2.33;1.60;;;;;;;;;;5013781;28;20203;-87
2022/09/18 12:33:21;;;;;;;2.27;1.40;;;;;;;;;;5014114;28;20639;-89
2022/09/18 12:35:55;;;;;;;2.73;1.80;;;;;;;;;;5014612;28;20230;-89
2022/09/18 12:38:29;;;;;;;1.50;1.40;;;;;;;;;;5013933;28;20223;-87
2022/09/18 12:41:05;;;;;;;1.47;1.37;;;;;;;;;;4992391;28;20190;-86
2022/09/18 12:43:39;;;;;;;1.83;1.47;;;;;;;;;;5014063;28;20199;-89
2022/09/18 12:46:13;;;;;;;3.03;1.10;;;;;;;;;;5014853;28;20764;-87
2022/09/18 12:48:48;;;;;;;1.87;1.47;;;;;;;;;;5014043;28;20235;-89
2022/09/18 12:51:21;;;;;;;1.67;1.37;;;;;;;;;;5015348;28;20222;-89
2022/09/18 12:53:53;;;;;;;3.87;2.00;;;;;;;;;;5009532;28;20242;-89
2022/09/18 12:56:28;;;;;;;1.53;1.43;;;;;;;;;;5023641;28;20215;-89
2022/09/18 12:59:03;;;;;;;2.60;1.33;;;;;;;;;;5017524;28;20247;-90
2022/09/18 13:01:33;;;;;;;3.47;1.50;;;;;;;;;;5016282;28;20207;-88
2022/09/18 13:04:04;;;;;;;1.83;1.40;;;;;;;;;;5014453;28;20319;-90
2022/09/18 13:06:35;;;;;;;2.03;1.20;;;;;;;;;;5014799;28;20214;-89
2022/09/18 13:09:05;;;;;;;3.10;1.50;;;;;;;;;;5013612;28;20239;-89
2022/09/18 13:11:44;;;;;;;2.83;1.20;;;;;;;;;;5014367;28;20623;-88
2022/09/18 13:14:15;;;;;;;3.53;1.60;;;;;;;;;;4994371;28;20235;-89
2022/09/18 13:16:43;;;;;;;1.33;1.23;;;;;;;;;;4996022;28;20204;-90
2022/09/18 13:19:11;;;;;;;2.83;1.50;;;;;;;;;;4994461;28;20236;-89
2022/09/18 13:21:41;;;;;;;2.00;1.60;;;;;;;;;;4995599;28;20553;-89
2022/09/18 13:24:13;;;;;;;1.97;1.27;;;;;;;;;;4994620;28;20305;-87
2022/09/18 13:26:41;;;;;;;1.50;1.40;;;;;;;;;;4995375;28;20218;-86
2022/09/18 13:29:23;;;;;;;2.37;1.73;;;;;;;;;;4993563;28;20243;-86
2022/09/18 13:31:53;;;;;;;1.97;1.80;;;;;;;;;;5013331;28;20249;-87
2022/09/18 13:34:22;;;;;;;3.60;1.90;;;;;;;;;;5013259;28;20232;-88
2022/09/18 13:36:49;;;;;;;2.37;1.43;;;;;;;;;;5013935;28;20207;-88
2022/09/18 13:39:18;;;;;;;2.03;1.80;;;;;;;;;;5013057;28;20242;-88
2022/09/18 13:41:49;;;;;;;1.50;1.40;;;;;;;;;;4989447;28;20203;-88
2022/09/18 13:44:19;;;;;;;3.57;1.60;;;;;;;;;;4993356;28;20238;-87
2022/09/18 13:46:47;;;;;;;3.03;1.53;;;;;;;;;;5010640;28;20558;-87
2022/09/18 13:49:21;;;;;;;2.40;1.20;;;;;;;;;;5020148;28;20226;-89
2022/09/18 13:51:48;;;;;;;1.43;1.33;;;;;;;;;;5015614;28;20223;-89
2022/09/18 13:54:18;;;;;;;2.20;1.60;;;;;;;;;;5012891;28;20247;-88
2022/09/18 13:57:09;;;;;;;1.50;1.40;;;;;;;;;;5013585;28;20225;-88
2022/09/18 13:59:46;;;;;;;3.30;1.67;;;;;;;;;;5022444;28;20227;-91
2022/09/18 14:02:24;;;;;;;3.30;1.53;;;;;;;;;;5016320;28;20326;-87
2022/09/18 14:05:10;;;;;;;2.27;1.20;;;;;;;;;;5012661;28;20246;-87
2022/09/18 14:07:59;;;;;;;1.80;1.60;;;;;;;;;;5014972;28;20704;-86
2022/09/18 14:10:28;;;;;;;3.87;1.80;;;;;;;;;;5013065;28;20289;-90
2022/09/18 14:13:28;;;;;;;2.50;1.53;;;;;;;;;;5014142;28;20223;-89
2022/09/18 14:15:59;;;;;;;1.57;1.43;;;;;;;;;;5005781;28;20280;-89
2022/09/18 14:18:27;;;;;;;2.87;1.60;;;;;;;;;;5013248;28;20231;-89
2022/09/18 14:20:56;;;;;;;1.50;1.40;;;;;;;;;;5014052;28;20203;-88
2022/09/18 14:23:50;;;;;;;3.10;2.00;;;;;;;;;;5013723;28;20192;-88
2022/09/18 14:26:34;;;;;;;3.83;1.77;;;;;;;;;;4963266;28;20215;-90
2022/09/18 14:29:05;;;;;;;5.53;1.43;;;;;;;;;;5012917;28;20273;-88
2022/09/18 14:31:37;;;;;;;2.73;1.70;;;;;;;;;;5010673;28;20581;-89
2022/09/18 14:34:07;;;;;;;2.17;1.70;;;;;;;;;;5011566;28;20326;-88
2022/09/18 14:36:43;;;;;;;2.63;1.50;;;;;;;;;;5004652;28;20195;-88
2022/09/18 14:39:22;;;;;;;4.70;1.90;;;;;;;;;;5012550;28;20772;-89
2022/09/18 14:41:49;;;;;;;1.77;1.67;;;;;;;;;;4997157;28;20195;-89
2022/09/18 14:44:17;;;;;;;2.53;1.70;;;;;;;;;;5007853;28;20238;-88
2022/09/18 14:46:54;;;;;;;1.90;1.60;;;;;;;;;;5014587;28;20283;-90
2022/09/18 14:49:29;;;;;;;2.40;2.20;;;;;;;;;;5014245;28;20243;-89
2022/09/18 14:51:56;;;;;;;3.27;1.90;;;;;;;;;;5018132;28;20218;-87
2022/09/18 14:54:24;;;;;;;4.17;2.00;;;;;;;;;;5015413;28;20235;-88
2022/09/18 14:56:53;;;;;;;3.27;2.03;;;;;;;;;;5032770;28;20230;-87
2022/09/18 14:59:20;;;;;;;1.90;1.80;;;;;;;;;;5013578;28;20243;-87